createdAt,value
2022-08-22T00:00:55.443Z,13.68
2022-08-22T00:20:55.434Z,13.39
2022-08-22T00:40:55.407Z,13.27
2022-08-22T01:00:55.382Z,13.3
2022-08-22T01:20:55.305Z,13.19
2022-08-22T01:40:55.226Z,13.11
2022-08-22T02:00:55.226Z,12.99
2022-08-22T02:20:55.164Z,12.81
2022-08-22T02:40:55.102Z,12.32
2022-08-22T03:00:55.102Z,12.18
2022-08-22T03:20:55.023Z,12.39
2022-08-22T03:40:54.958Z,12.38
2022-08-22T04:00:56.030Z,12.11
2022-08-22T04:20:54.915Z,12.21
2022-08-22T04:40:54.831Z,12.45
2022-08-22T05:00:54.844Z,12.86
2022-08-22T05:20:54.753Z,13.25
2022-08-22T05:40:54.722Z,14.15
2022-08-22T06:00:54.827Z,15.72
2022-08-22T06:20:54.818Z,15.95
2022-08-22T06:40:54.620Z,16.12
2022-08-22T07:00:58.996Z,16.85
2022-08-22T07:20:54.970Z,18.05
2022-08-22T07:40:54.434Z,18.85
2022-08-22T08:00:54.421Z,19.94
2022-08-22T08:20:54.336Z,21.55
2022-08-22T08:40:54.290Z,22.33
2022-08-22T09:00:54.285Z,22.59
2022-08-22T09:20:54.184Z,23.5
2022-08-22T09:40:54.114Z,23.93
2022-08-22T10:00:54.481Z,23.67
2022-08-22T10:20:54.011Z,24.6
2022-08-22T10:40:53.972Z,24.6
2022-08-22T11:00:53.962Z,24.6
2022-08-22T11:20:53.876Z,24.26
2022-08-22T11:40:53.854Z,24.43
2022-08-22T12:00:53.768Z,24.6
2022-08-22T12:20:53.737Z,24.41
2022-08-22T12:40:53.683Z,25.48
2022-08-22T13:00:53.675Z,25.36
2022-08-22T13:20:53.564Z,24.72
2022-08-22T13:40:53.523Z,24.43
2022-08-22T14:00:56.593Z,24.19
2022-08-22T14:20:53.410Z,23.91
2022-08-22T14:40:53.351Z,23.79
2022-08-22T15:00:53.303Z,23.76
2022-08-22T15:20:53.260Z,23.73
2022-08-22T15:40:53.215Z,23.73
2022-08-22T16:00:53.157Z,23.38
2022-08-22T16:20:53.126Z,22.76
2022-08-22T16:40:53.085Z,22.56
2022-08-22T17:00:57.638Z,22.33
2022-08-22T17:20:52.961Z,22.01
2022-08-22T17:40:52.897Z,21.6
2022-08-22T18:00:52.908Z,21.21
2022-08-22T18:20:52.809Z,20.84
2022-08-22T18:40:52.768Z,20.49
2022-08-22T19:00:52.739Z,20.08
2022-08-22T19:20:52.652Z,19.83
2022-08-22T19:40:52.601Z,19.65
2022-08-22T20:00:53.580Z,19.5
2022-08-22T20:20:52.521Z,19.18
2022-08-22T20:40:55.803Z,18.84
2022-08-22T21:00:52.509Z,18.68
2022-08-22T21:20:52.362Z,18.76
2022-08-22T21:40:52.308Z,18.83
2022-08-22T22:00:52.302Z,18.64
2022-08-22T22:20:52.186Z,18.59
2022-08-22T22:40:52.208Z,18.48
2022-08-22T23:00:52.220Z,18.2
2022-08-22T23:20:52.092Z,17.77
2022-08-22T23:40:52.103Z,17.77
